sensor_id;sensor_type;location;lat;lon;timestamp;P1;durP1;ratioP1;P2;durP2;ratioP2
66739;SDS011;53653;52.188;8.602;2023-08-21T00:00:43;8.60;;;2.55;;
66739;SDS011;53653;52.188;8.602;2023-08-21T00:03:09;6.93;;;2.27;;
66739;SDS011;53653;52.188;8.602;2023-08-21T00:05:35;8.82;;;2.60;;
66739;SDS011;53653;52.188;8.602;2023-08-21T00:08:00;7.70;;;2.70;;
66739;SDS011;53653;52.188;8.602;2023-08-21T00:10:25;8.93;;;2.60;;
66739;SDS011;53653;52.188;8.602;2023-08-21T00:12:51;8.77;;;2.67;;
66739;SDS011;53653;52.188;8.602;2023-08-21T00:15:17;6.27;;;2.00;;
66739;SDS011;53653;52.188;8.602;2023-08-21T00:17:42;8.03;;;2.30;;
66739;SDS011;53653;52.188;8.602;2023-08-21T00:20:08;6.03;;;2.10;;
66739;SDS011;53653;52.188;8.602;2023-08-21T00:22:35;8.97;;;2.30;;
66739;SDS011;53653;52.188;8.602;2023-08-21T00:25:01;6.50;;;2.10;;
66739;SDS011;53653;52.188;8.602;2023-08-21T00:27:26;13.75;;;2.58;;
66739;SDS011;53653;52.188;8.602;2023-08-21T00:29:53;8.88;;;2.40;;
66739;SDS011;53653;52.188;8.602;2023-08-21T00:32:19;7.40;;;2.63;;
66739;SDS011;53653;52.188;8.602;2023-08-21T00:34:44;7.67;;;2.90;;
66739;SDS011;53653;52.188;8.602;2023-08-21T00:37:10;8.88;;;2.58;;
66739;SDS011;53653;52.188;8.602;2023-08-21T00:39:36;10.65;;;2.50;;
66739;SDS011;53653;52.188;8.602;2023-08-21T00:42:01;12.03;;;2.83;;
66739;SDS011;53653;52.188;8.602;2023-08-21T00:44:27;8.13;;;2.60;;
66739;SDS011;53653;52.188;8.602;2023-08-21T00:46:53;9.07;;;2.60;;
66739;SDS011;53653;52.188;8.602;2023-08-21T00:49:19;9.63;;;3.10;;
66739;SDS011;53653;52.188;8.602;2023-08-21T00:51:46;10.65;;;2.95;;
66739;SDS011;53653;52.188;8.602;2023-08-21T00:54:12;11.13;;;3.30;;
66739;SDS011;53653;52.188;8.602;2023-08-21T00:56:37;7.78;;;2.70;;
66739;SDS011;53653;52.188;8.602;2023-08-21T00:59:03;8.27;;;2.90;;
66739;SDS011;53653;52.188;8.602;2023-08-21T01:01:29;9.38;;;2.80;;
66739;SDS011;53653;52.188;8.602;2023-08-21T01:03:55;8.90;;;3.00;;
66739;SDS011;53653;52.188;8.602;2023-08-21T01:06:21;9.00;;;2.80;;
66739;SDS011;53653;52.188;8.602;2023-08-21T01:08:53;8.50;;;2.72;;
66739;SDS011;53653;52.188;8.602;2023-08-21T01:11:46;8.87;;;2.63;;
66739;SDS011;53653;52.188;8.602;2023-08-21T01:14:25;7.75;;;2.78;;
66739;SDS011;53653;52.188;8.602;2023-08-21T01:16:56;7.88;;;2.53;;
66739;SDS011;53653;52.188;8.602;2023-08-21T01:19:35;8.18;;;2.60;;
66739;SDS011;53653;52.188;8.602;2023-08-21T01:22:03;7.72;;;3.00;;
66739;SDS011;53653;52.188;8.602;2023-08-21T01:24:29;8.20;;;2.93;;
66739;SDS011;53653;52.188;8.602;2023-08-21T01:26:55;7.43;;;2.80;;
66739;SDS011;53653;52.188;8.602;2023-08-21T01:29:20;6.93;;;2.60;;
66739;SDS011;53653;52.188;8.602;2023-08-21T01:31:47;8.05;;;2.90;;
66739;SDS011;53653;52.188;8.602;2023-08-21T01:34:21;10.10;;;3.20;;
66739;SDS011;53653;52.188;8.602;2023-08-21T01:36:48;10.43;;;2.80;;
66739;SDS011;53653;52.188;8.602;2023-08-21T01:39:14;7.75;;;2.38;;
66739;SDS011;53653;52.188;8.602;2023-08-21T01:41:40;8.37;;;2.83;;
66739;SDS011;53653;52.188;8.602;2023-08-21T01:44:07;7.47;;;2.42;;
66739;SDS011;53653;52.188;8.602;2023-08-21T01:46:32;7.07;;;2.50;;
66739;SDS011;53653;52.188;8.602;2023-08-21T01:48:58;8.15;;;2.90;;
66739;SDS011;53653;52.188;8.602;2023-08-21T01:51:23;7.90;;;3.00;;
66739;SDS011;53653;52.188;8.602;2023-08-21T01:53:49;9.30;;;3.53;;
66739;SDS011;53653;52.188;8.602;2023-08-21T01:56:14;8.15;;;3.50;;
66739;SDS011;53653;52.188;8.602;2023-08-21T01:58:40;6.80;;;3.10;;
66739;SDS011;53653;52.188;8.602;2023-08-21T02:01:05;10.50;;;3.80;;
66739;SDS011;53653;52.188;8.602;2023-08-21T02:03:31;8.77;;;3.22;;
66739;SDS011;53653;52.188;8.602;2023-08-21T02:05:56;9.57;;;2.90;;
66739;SDS011;53653;52.188;8.602;2023-08-21T02:08:25;8.27;;;3.08;;
66739;SDS011;53653;52.188;8.602;2023-08-21T02:10:55;6.85;;;3.00;;
66739;SDS011;53653;52.188;8.602;2023-08-21T02:13:21;8.40;;;3.40;;
66739;SDS011;53653;52.188;8.602;2023-08-21T02:15:46;11.07;;;3.33;;
66739;SDS011;53653;52.188;8.602;2023-08-21T02:18:12;8.13;;;2.90;;
66739;SDS011;53653;52.188;8.602;2023-08-21T02:20:37;8.87;;;3.10;;
66739;SDS011;53653;52.188;8.602;2023-08-21T02:23:03;9.47;;;2.90;;
66739;SDS011;53653;52.188;8.602;2023-08-21T02:25:29;7.93;;;3.08;;
66739;SDS011;53653;52.188;8.602;2023-08-21T02:27:55;8.98;;;3.28;;
66739;SDS011;53653;52.188;8.602;2023-08-21T02:30:21;9.60;;;3.23;;
66739;SDS011;53653;52.188;8.602;2023-08-21T02:32:50;7.95;;;3.47;;
66739;SDS011;53653;52.188;8.602;2023-08-21T02:35:17;6.90;;;3.20;;
66739;SDS011;53653;52.188;8.602;2023-08-21T02:37:42;8.60;;;2.97;;
66739;SDS011;53653;52.188;8.602;2023-08-21T02:40:08;9.13;;;3.10;;
66739;SDS011;53653;52.188;8.602;2023-08-21T02:42:34;8.38;;;3.17;;
66739;SDS011;53653;52.188;8.602;2023-08-21T02:45:00;8.20;;;3.08;;
66739;SDS011;53653;52.188;8.602;2023-08-21T02:47:29;8.37;;;2.93;;
66739;SDS011;53653;52.188;8.602;2023-08-21T02:49:55;10.98;;;3.33;;
66739;SDS011;53653;52.188;8.602;2023-08-21T02:52:21;10.63;;;3.23;;
66739;SDS011;53653;52.188;8.602;2023-08-21T02:54:46;7.40;;;2.83;;
66739;SDS011;53653;52.188;8.602;2023-08-21T02:57:12;7.13;;;3.10;;
66739;SDS011;53653;52.188;8.602;2023-08-21T02:59:37;11.27;;;2.95;;
66739;SDS011;53653;52.188;8.602;2023-08-21T03:02:03;9.83;;;3.00;;
66739;SDS011;53653;52.188;8.602;2023-08-21T03:04:28;9.07;;;2.90;;
66739;SDS011;53653;52.188;8.602;2023-08-21T03:06:54;7.83;;;2.87;;
66739;SDS011;53653;52.188;8.602;2023-08-21T03:09:19;8.50;;;3.10;;
66739;SDS011;53653;52.188;8.602;2023-08-21T03:11:45;6.77;;;2.80;;
66739;SDS011;53653;52.188;8.602;2023-08-21T03:14:10;6.77;;;3.10;;
66739;SDS011;53653;52.188;8.602;2023-08-21T03:16:36;10.63;;;2.92;;
66739;SDS011;53653;52.188;8.602;2023-08-21T03:19:01;8.17;;;3.13;;
66739;SDS011;53653;52.188;8.602;2023-08-21T03:21:29;8.25;;;2.92;;
66739;SDS011;53653;52.188;8.602;2023-08-21T03:23:56;8.15;;;2.95;;
66739;SDS011;53653;52.188;8.602;2023-08-21T03:26:24;10.83;;;3.50;;
66739;SDS011;53653;52.188;8.602;2023-08-21T03:28:50;8.25;;;2.97;;
66739;SDS011;53653;52.188;8.602;2023-08-21T03:31:16;10.93;;;3.40;;
66739;SDS011;53653;52.188;8.602;2023-08-21T03:33:42;10.90;;;3.08;;
66739;SDS011;53653;52.188;8.602;2023-08-21T03:36:07;8.03;;;2.70;;
66739;SDS011;53653;52.188;8.602;2023-08-21T03:38:34;6.60;;;2.40;;
66739;SDS011;53653;52.188;8.602;2023-08-21T03:41:00;7.72;;;2.78;;
66739;SDS011;53653;52.188;8.602;2023-08-21T03:43:26;8.93;;;3.10;;
66739;SDS011;53653;52.188;8.602;2023-08-21T03:45:51;9.65;;;3.25;;
66739;SDS011;53653;52.188;8.602;2023-08-21T03:48:17;7.47;;;3.00;;
66739;SDS011;53653;52.188;8.602;2023-08-21T03:50:42;7.00;;;3.00;;
66739;SDS011;53653;52.188;8.602;2023-08-21T03:53:08;7.23;;;2.70;;
66739;SDS011;53653;52.188;8.602;2023-08-21T03:55:33;8.93;;;2.73;;
66739;SDS011;53653;52.188;8.602;2023-08-21T03:57:59;7.50;;;2.92;;
66739;SDS011;53653;52.188;8.602;2023-08-21T04:00:26;7.93;;;2.83;;
66739;SDS011;53653;52.188;8.602;2023-08-21T04:02:52;6.78;;;2.88;;
66739;SDS011;53653;52.188;8.602;2023-08-21T04:05:17;6.70;;;2.53;;
66739;SDS011;53653;52.188;8.602;2023-08-21T04:07:43;6.90;;;2.83;;
66739;SDS011;53653;52.188;8.602;2023-08-21T04:10:08;6.93;;;2.67;;
66739;SDS011;53653;52.188;8.602;2023-08-21T04:12:34;7.17;;;2.57;;
66739;SDS011;53653;52.188;8.602;2023-08-21T04:15:00;7.90;;;2.90;;
66739;SDS011;53653;52.188;8.602;2023-08-21T04:17:25;6.97;;;2.53;;
66739;SDS011;53653;52.188;8.602;2023-08-21T04:19:52;8.30;;;3.17;;
66739;SDS011;53653;52.188;8.602;2023-08-21T04:22:17;10.57;;;3.40;;
66739;SDS011;53653;52.188;8.602;2023-08-21T04:24:43;11.57;;;3.50;;
66739;SDS011;53653;52.188;8.602;2023-08-21T04:27:09;7.97;;;2.80;;
66739;SDS011;53653;52.188;8.602;2023-08-21T04:29:35;10.23;;;3.10;;
66739;SDS011;53653;52.188;8.602;2023-08-21T04:32:05;8.32;;;3.17;;
66739;SDS011;53653;52.188;8.602;2023-08-21T04:34:34;9.13;;;3.25;;
66739;SDS011;53653;52.188;8.602;2023-08-21T04:37:00;7.32;;;2.97;;
66739;SDS011;53653;52.188;8.602;2023-08-21T04:39:26;10.30;;;3.40;;
66739;SDS011;53653;52.188;8.602;2023-08-21T04:41:52;9.48;;;3.80;;
66739;SDS011;53653;52.188;8.602;2023-08-21T04:44:18;9.98;;;3.50;;
66739;SDS011;53653;52.188;8.602;2023-08-21T04:46:47;11.60;;;3.60;;
66739;SDS011;53653;52.188;8.602;2023-08-21T04:49:14;11.30;;;3.43;;
66739;SDS011;53653;52.188;8.602;2023-08-21T04:51:40;9.43;;;3.22;;
66739;SDS011;53653;52.188;8.602;2023-08-21T04:54:05;6.90;;;3.23;;
66739;SDS011;53653;52.188;8.602;2023-08-21T04:56:31;10.57;;;3.03;;
66739;SDS011;53653;52.188;8.602;2023-08-21T04:58:57;14.40;;;3.27;;
66739;SDS011;53653;52.188;8.602;2023-08-21T05:01:25;11.98;;;3.42;;
66739;SDS011;53653;52.188;8.602;2023-08-21T05:03:51;9.40;;;3.20;;
66739;SDS011;53653;52.188;8.602;2023-08-21T05:06:17;9.02;;;3.40;;
66739;SDS011;53653;52.188;8.602;2023-08-21T05:08:43;9.80;;;3.63;;
66739;SDS011;53653;52.188;8.602;2023-08-21T05:11:10;10.10;;;3.50;;
66739;SDS011;53653;52.188;8.602;2023-08-21T05:13:37;10.07;;;3.70;;
66739;SDS011;53653;52.188;8.602;2023-08-21T05:16:05;8.52;;;3.80;;
66739;SDS011;53653;52.188;8.602;2023-08-21T05:18:34;12.13;;;3.85;;
66739;SDS011;53653;52.188;8.602;2023-08-21T05:21:00;8.53;;;3.67;;
66739;SDS011;53653;52.188;8.602;2023-08-21T05:23:26;10.05;;;3.53;;
66739;SDS011;53653;52.188;8.602;2023-08-21T05:25:56;10.17;;;3.60;;
66739;SDS011;53653;52.188;8.602;2023-08-21T05:28:22;7.07;;;3.25;;
66739;SDS011;53653;52.188;8.602;2023-08-21T05:30:47;10.30;;;4.07;;
66739;SDS011;53653;52.188;8.602;2023-08-21T05:33:14;11.48;;;4.28;;
66739;SDS011;53653;52.188;8.602;2023-08-21T05:35:42;9.63;;;3.60;;
66739;SDS011;53653;52.188;8.602;2023-08-21T05:38:09;11.43;;;3.92;;
66739;SDS011;53653;52.188;8.602;2023-08-21T05:40:34;10.37;;;3.30;;
66739;SDS011;53653;52.188;8.602;2023-08-21T05:43:00;7.70;;;3.67;;
66739;SDS011;53653;52.188;8.602;2023-08-21T05:45:26;8.80;;;3.90;;
66739;SDS011;53653;52.188;8.602;2023-08-21T05:47:53;9.43;;;3.65;;
66739;SDS011;53653;52.188;8.602;2023-08-21T05:50:18;9.30;;;3.33;;
66739;SDS011;53653;52.188;8.602;2023-08-21T05:52:44;9.02;;;3.67;;
66739;SDS011;53653;52.188;8.602;2023-08-21T05:55:10;8.87;;;3.57;;
66739;SDS011;53653;52.188;8.602;2023-08-21T05:57:36;11.60;;;3.42;;
66739;SDS011;53653;52.188;8.602;2023-08-21T06:00:03;9.13;;;3.83;;
66739;SDS011;53653;52.188;8.602;2023-08-21T06:02:40;8.60;;;3.83;;
66739;SDS011;53653;52.188;8.602;2023-08-21T06:05:07;11.47;;;4.03;;
66739;SDS011;53653;52.188;8.602;2023-08-21T06:07:33;11.38;;;3.88;;
66739;SDS011;53653;52.188;8.602;2023-08-21T06:09:59;9.17;;;3.70;;
66739;SDS011;53653;52.188;8.602;2023-08-21T06:12:24;9.53;;;3.43;;
66739;SDS011;53653;52.188;8.602;2023-08-21T06:14:51;11.65;;;3.70;;
66739;SDS011;53653;52.188;8.602;2023-08-21T06:17:17;10.70;;;4.10;;
66739;SDS011;53653;52.188;8.602;2023-08-21T06:19:43;9.88;;;3.60;;
66739;SDS011;53653;52.188;8.602;2023-08-21T06:22:09;7.67;;;3.67;;
66739;SDS011;53653;52.188;8.602;2023-08-21T06:24:34;10.18;;;4.05;;
66739;SDS011;53653;52.188;8.602;2023-08-21T06:27:02;10.60;;;3.53;;
66739;SDS011;53653;52.188;8.602;2023-08-21T06:29:28;9.67;;;3.43;;
66739;SDS011;53653;52.188;8.602;2023-08-21T06:31:54;8.25;;;3.50;;
66739;SDS011;53653;52.188;8.602;2023-08-21T06:34:21;9.40;;;3.40;;
66739;SDS011;53653;52.188;8.602;2023-08-21T06:36:46;7.97;;;3.57;;
66739;SDS011;53653;52.188;8.602;2023-08-21T06:39:12;8.43;;;3.50;;
66739;SDS011;53653;52.188;8.602;2023-08-21T06:41:37;8.33;;;3.60;;
66739;SDS011;53653;52.188;8.602;2023-08-21T06:44:03;9.03;;;3.40;;
66739;SDS011;53653;52.188;8.602;2023-08-21T06:46:29;9.85;;;3.55;;
66739;SDS011;53653;52.188;8.602;2023-08-21T06:48:54;9.73;;;3.50;;
66739;SDS011;53653;52.188;8.602;2023-08-21T06:51:20;11.15;;;3.97;;
66739;SDS011;53653;52.188;8.602;2023-08-21T06:53:45;10.93;;;3.80;;
66739;SDS011;53653;52.188;8.602;2023-08-21T06:56:11;15.90;;;3.88;;
66739;SDS011;53653;52.188;8.602;2023-08-21T06:58:37;10.13;;;3.50;;
66739;SDS011;53653;52.188;8.602;2023-08-21T07:01:03;7.85;;;3.20;;
66739;SDS011;53653;52.188;8.602;2023-08-21T07:03:28;14.83;;;3.60;;
66739;SDS011;53653;52.188;8.602;2023-08-21T07:05:57;9.38;;;3.40;;
66739;SDS011;53653;52.188;8.602;2023-08-21T07:08:24;11.15;;;3.45;;
66739;SDS011;53653;52.188;8.602;2023-08-21T07:10:51;12.13;;;3.33;;
66739;SDS011;53653;52.188;8.602;2023-08-21T07:13:18;9.07;;;2.75;;
66739;SDS011;53653;52.188;8.602;2023-08-21T07:15:45;8.77;;;2.65;;
66739;SDS011;53653;52.188;8.602;2023-08-21T07:18:11;8.73;;;2.75;;
66739;SDS011;53653;52.188;8.602;2023-08-21T07:20:37;9.35;;;3.20;;
66739;SDS011;53653;52.188;8.602;2023-08-21T07:23:03;9.20;;;2.70;;
66739;SDS011;53653;52.188;8.602;2023-08-21T07:25:29;10.15;;;2.70;;
66739;SDS011;53653;52.188;8.602;2023-08-21T07:27:56;8.30;;;2.67;;
66739;SDS011;53653;52.188;8.602;2023-08-21T07:30:22;8.73;;;2.50;;
66739;SDS011;53653;52.188;8.602;2023-08-21T07:32:52;8.75;;;2.67;;
66739;SDS011;53653;52.188;8.602;2023-08-21T07:35:18;7.57;;;2.67;;
66739;SDS011;53653;52.188;8.602;2023-08-21T07:37:45;8.40;;;2.80;;
66739;SDS011;53653;52.188;8.602;2023-08-21T07:40:10;9.45;;;2.60;;
66739;SDS011;53653;52.188;8.602;2023-08-21T07:42:36;7.20;;;2.30;;
66739;SDS011;53653;52.188;8.602;2023-08-21T07:45:03;8.50;;;2.30;;
66739;SDS011;53653;52.188;8.602;2023-08-21T07:47:29;9.43;;;2.50;;
66739;SDS011;53653;52.188;8.602;2023-08-21T07:49:56;10.90;;;2.38;;
66739;SDS011;53653;52.188;8.602;2023-08-21T07:52:23;6.32;;;2.30;;
66739;SDS011;53653;52.188;8.602;2023-08-21T07:54:52;9.18;;;2.35;;
66739;SDS011;53653;52.188;8.602;2023-08-21T07:57:19;10.60;;;2.60;;
66739;SDS011;53653;52.188;8.602;2023-08-21T07:59:45;9.07;;;2.50;;
66739;SDS011;53653;52.188;8.602;2023-08-21T08:02:11;8.32;;;2.25;;
66739;SDS011;53653;52.188;8.602;2023-08-21T08:04:40;9.70;;;2.20;;
66739;SDS011;53653;52.188;8.602;2023-08-21T08:07:07;6.88;;;1.75;;
66739;SDS011;53653;52.188;8.602;2023-08-21T08:09:33;8.03;;;1.60;;
66739;SDS011;53653;52.188;8.602;2023-08-21T08:11:59;6.43;;;1.80;;
66739;SDS011;53653;52.188;8.602;2023-08-21T08:14:25;8.95;;;2.08;;
66739;SDS011;53653;52.188;8.602;2023-08-21T08:16:50;9.77;;;2.50;;
66739;SDS011;53653;52.188;8.602;2023-08-21T08:19:16;10.65;;;2.10;;
66739;SDS011;53653;52.188;8.602;2023-08-21T08:21:42;9.68;;;2.05;;
66739;SDS011;53653;52.188;8.602;2023-08-21T08:24:08;6.73;;;1.67;;
66739;SDS011;53653;52.188;8.602;2023-08-21T08:26:34;8.50;;;2.13;;
66739;SDS011;53653;52.188;8.602;2023-08-21T08:29:00;9.73;;;2.08;;
66739;SDS011;53653;52.188;8.602;2023-08-21T08:31:26;8.20;;;2.50;;
66739;SDS011;53653;52.188;8.602;2023-08-21T08:33:53;9.75;;;2.10;;
66739;SDS011;53653;52.188;8.602;2023-08-21T08:36:19;7.45;;;2.10;;
66739;SDS011;53653;52.188;8.602;2023-08-21T08:38:45;12.88;;;2.40;;
66739;SDS011;53653;52.188;8.602;2023-08-21T08:41:12;7.50;;;1.93;;
66739;SDS011;53653;52.188;8.602;2023-08-21T08:43:50;9.63;;;2.77;;
66739;SDS011;53653;52.188;8.602;2023-08-21T08:46:17;7.72;;;2.00;;
66739;SDS011;53653;52.188;8.602;2023-08-21T08:48:43;9.60;;;2.17;;
66739;SDS011;53653;52.188;8.602;2023-08-21T08:51:08;8.67;;;2.10;;
66739;SDS011;53653;52.188;8.602;2023-08-21T08:53:35;9.32;;;2.17;;
66739;SDS011;53653;52.188;8.602;2023-08-21T08:56:01;8.93;;;1.90;;
66739;SDS011;53653;52.188;8.602;2023-08-21T08:58:28;7.40;;;1.80;;
66739;SDS011;53653;52.188;8.602;2023-08-21T09:00:55;9.00;;;2.10;;
66739;SDS011;53653;52.188;8.602;2023-08-21T09:03:20;7.75;;;1.73;;
66739;SDS011;53653;52.188;8.602;2023-08-21T09:05:46;5.63;;;1.50;;
66739;SDS011;53653;52.188;8.602;2023-08-21T09:08:13;8.23;;;1.70;;
66739;SDS011;53653;52.188;8.602;2023-08-21T09:10:40;8.05;;;2.08;;
66739;SDS011;53653;52.188;8.602;2023-08-21T09:13:17;8.68;;;1.85;;
66739;SDS011;53653;52.188;8.602;2023-08-21T09:15:45;9.23;;;2.67;;
66739;SDS011;53653;52.188;8.602;2023-08-21T09:18:12;8.38;;;1.90;;
66739;SDS011;53653;52.188;8.602;2023-08-21T09:20:38;7.80;;;2.20;;
66739;SDS011;53653;52.188;8.602;2023-08-21T09:23:04;8.90;;;1.90;;
66739;SDS011;53653;52.188;8.602;2023-08-21T09:25:39;17.10;;;2.17;;
66739;SDS011;53653;52.188;8.602;2023-08-21T09:28:06;9.38;;;2.13;;
66739;SDS011;53653;52.188;8.602;2023-08-21T09:33:18;10.23;;;2.75;;
66739;SDS011;53653;52.188;8.602;2023-08-21T09:35:45;10.82;;;2.30;;
66739;SDS011;53653;52.188;8.602;2023-08-21T09:38:14;8.50;;;2.00;;
66739;SDS011;53653;52.188;8.602;2023-08-21T09:40:40;8.88;;;1.88;;
66739;SDS011;53653;52.188;8.602;2023-08-21T09:43:10;8.03;;;1.80;;
66739;SDS011;53653;52.188;8.602;2023-08-21T09:45:37;6.47;;;1.80;;
66739;SDS011;53653;52.188;8.602;2023-08-21T09:48:03;7.65;;;2.00;;
66739;SDS011;53653;52.188;8.602;2023-08-21T09:50:30;7.78;;;1.90;;
66739;SDS011;53653;52.188;8.602;2023-08-21T09:52:56;9.70;;;2.00;;
66739;SDS011;53653;52.188;8.602;2023-08-21T09:55:23;8.83;;;1.87;;
66739;SDS011;53653;52.188;8.602;2023-08-21T09:57:51;8.55;;;1.90;;
66739;SDS011;53653;52.188;8.602;2023-08-21T10:00:28;7.22;;;2.17;;
66739;SDS011;53653;52.188;8.602;2023-08-21T10:02:55;8.27;;;1.70;;
66739;SDS011;53653;52.188;8.602;2023-08-21T10:05:29;6.30;;;1.77;;
66739;SDS011;53653;52.188;8.602;2023-08-21T10:07:57;8.63;;;2.10;;
66739;SDS011;53653;52.188;8.602;2023-08-21T10:10:28;6.22;;;1.60;;
66739;SDS011;53653;52.188;8.602;2023-08-21T10:12:56;7.80;;;1.63;;
66739;SDS011;53653;52.188;8.602;2023-08-21T10:15:22;9.23;;;1.90;;
66739;SDS011;53653;52.188;8.602;2023-08-21T10:17:48;6.88;;;1.58;;
66739;SDS011;53653;52.188;8.602;2023-08-21T10:20:14;6.60;;;1.80;;
66739;SDS011;53653;52.188;8.602;2023-08-21T10:22:48;6.25;;;1.70;;
66739;SDS011;53653;52.188;8.602;2023-08-21T10:27:42;8.20;;;1.85;;
66739;SDS011;53653;52.188;8.602;2023-08-21T10:30:15;7.57;;;1.70;;
66739;SDS011;53653;52.188;8.602;2023-08-21T10:32:49;8.70;;;2.08;;
66739;SDS011;53653;52.188;8.602;2023-08-21T10:35:29;6.57;;;1.80;;
66739;SDS011;53653;52.188;8.602;2023-08-21T10:38:12;6.53;;;1.60;;
66739;SDS011;53653;52.188;8.602;2023-08-21T10:41:26;9.63;;;1.80;;
66739;SDS011;53653;52.188;8.602;2023-08-21T10:43:41;8.40;;;2.00;;
66739;SDS011;53653;52.188;8.602;2023-08-21T10:46:12;7.32;;;2.10;;
66739;SDS011;53653;52.188;8.602;2023-08-21T10:48:41;6.72;;;1.95;;
66739;SDS011;53653;52.188;8.602;2023-08-21T10:51:07;8.65;;;1.92;;
66739;SDS011;53653;52.188;8.602;2023-08-21T10:53:45;9.63;;;2.30;;
66739;SDS011;53653;52.188;8.602;2023-08-21T10:56:11;7.03;;;1.63;;
66739;SDS011;53653;52.188;8.602;2023-08-21T10:58:43;5.45;;;1.60;;
66739;SDS011;53653;52.188;8.602;2023-08-21T11:01:12;6.93;;;1.83;;
66739;SDS011;53653;52.188;8.602;2023-08-21T11:03:38;8.70;;;1.70;;
66739;SDS011;53653;52.188;8.602;2023-08-21T11:06:08;9.65;;;2.30;;
66739;SDS011;53653;52.188;8.602;2023-08-21T11:08:35;8.85;;;1.70;;
66739;SDS011;53653;52.188;8.602;2023-08-21T11:11:02;7.88;;;1.90;;
66739;SDS011;53653;52.188;8.602;2023-08-21T11:13:28;8.20;;;2.00;;
66739;SDS011;53653;52.188;8.602;2023-08-21T11:16:01;8.93;;;2.43;;
66739;SDS011;53653;52.188;8.602;2023-08-21T11:18:38;10.07;;;2.10;;
66739;SDS011;53653;52.188;8.602;2023-08-21T11:21:08;5.63;;;1.83;;
66739;SDS011;53653;52.188;8.602;2023-08-21T11:23:36;7.60;;;1.80;;
66739;SDS011;53653;52.188;8.602;2023-08-21T11:26:02;13.05;;;2.55;;
66739;SDS011;53653;52.188;8.602;2023-08-21T11:28:29;6.27;;;1.83;;
66739;SDS011;53653;52.188;8.602;2023-08-21T11:30:56;7.38;;;1.75;;
66739;SDS011;53653;52.188;8.602;2023-08-21T11:33:22;6.85;;;1.90;;
66739;SDS011;53653;52.188;8.602;2023-08-21T11:35:48;7.15;;;2.05;;
66739;SDS011;53653;52.188;8.602;2023-08-21T11:38:18;11.90;;;2.10;;
66739;SDS011;53653;52.188;8.602;2023-08-21T11:40:55;5.20;;;1.80;;
66739;SDS011;53653;52.188;8.602;2023-08-21T11:43:41;6.60;;;1.55;;
66739;SDS011;53653;52.188;8.602;2023-08-21T11:46:08;7.47;;;1.80;;
66739;SDS011;53653;52.188;8.602;2023-08-21T11:48:39;7.97;;;1.83;;
66739;SDS011;53653;52.188;8.602;2023-08-21T11:51:06;11.23;;;2.10;;
66739;SDS011;53653;52.188;8.602;2023-08-21T11:53:36;8.23;;;1.70;;
66739;SDS011;53653;52.188;8.602;2023-08-21T11:56:13;7.13;;;1.83;;
66739;SDS011;53653;52.188;8.602;2023-08-21T11:58:40;7.75;;;1.50;;
66739;SDS011;53653;52.188;8.602;2023-08-21T12:01:10;6.88;;;1.80;;
66739;SDS011;53653;52.188;8.602;2023-08-21T12:03:41;6.32;;;1.60;;
66739;SDS011;53653;52.188;8.602;2023-08-21T12:06:07;8.67;;;2.00;;
66739;SDS011;53653;52.188;8.602;2023-08-21T12:08:34;8.55;;;2.08;;
66739;SDS011;53653;52.188;8.602;2023-08-21T12:11:00;7.07;;;1.70;;
66739;SDS011;53653;52.188;8.602;2023-08-21T12:13:27;6.50;;;1.87;;
66739;SDS011;53653;52.188;8.602;2023-08-21T12:15:53;9.77;;;1.90;;
66739;SDS011;53653;52.188;8.602;2023-08-21T12:18:19;7.63;;;2.00;;
66739;SDS011;53653;52.188;8.602;2023-08-21T12:20:45;6.47;;;1.60;;
66739;SDS011;53653;52.188;8.602;2023-08-21T12:23:10;7.50;;;1.83;;
66739;SDS011;53653;52.188;8.602;2023-08-21T12:25:36;8.10;;;1.80;;
66739;SDS011;53653;52.188;8.602;2023-08-21T12:28:02;8.73;;;2.00;;
66739;SDS011;53653;52.188;8.602;2023-08-21T12:30:27;6.93;;;1.63;;
66739;SDS011;53653;52.188;8.602;2023-08-21T12:32:53;5.77;;;1.40;;
66739;SDS011;53653;52.188;8.602;2023-08-21T12:35:18;9.83;;;1.97;;
66739;SDS011;53653;52.188;8.602;2023-08-21T12:37:44;5.30;;;1.90;;
66739;SDS011;53653;52.188;8.602;2023-08-21T12:40:09;8.67;;;2.27;;
66739;SDS011;53653;52.188;8.602;2023-08-21T12:42:35;7.53;;;1.80;;
66739;SDS011;53653;52.188;8.602;2023-08-21T12:45:01;9.38;;;2.20;;
66739;SDS011;53653;52.188;8.602;2023-08-21T12:47:27;6.47;;;1.80;;
66739;SDS011;53653;52.188;8.602;2023-08-21T12:49:53;5.65;;;1.73;;
66739;SDS011;53653;52.188;8.602;2023-08-21T12:52:18;9.60;;;1.93;;
66739;SDS011;53653;52.188;8.602;2023-08-21T12:54:45;4.65;;;1.60;;
66739;SDS011;53653;52.188;8.602;2023-08-21T12:57:11;8.95;;;2.00;;
66739;SDS011;53653;52.188;8.602;2023-08-21T12:59:37;7.03;;;1.73;;
66739;SDS011;53653;52.188;8.602;2023-08-21T13:02:03;9.05;;;1.70;;
66739;SDS011;53653;52.188;8.602;2023-08-21T13:04:29;8.17;;;1.43;;
66739;SDS011;53653;52.188;8.602;2023-08-21T13:06:55;7.57;;;1.60;;
66739;SDS011;53653;52.188;8.602;2023-08-21T13:09:21;7.03;;;1.75;;
66739;SDS011;53653;52.188;8.602;2023-08-21T13:11:49;6.70;;;1.60;;
66739;SDS011;53653;52.188;8.602;2023-08-21T13:14:15;7.90;;;2.20;;
66739;SDS011;53653;52.188;8.602;2023-08-21T13:16:40;9.15;;;1.55;;
66739;SDS011;53653;52.188;8.602;2023-08-21T13:19:07;8.20;;;1.90;;
66739;SDS011;53653;52.188;8.602;2023-08-21T13:21:32;6.70;;;1.92;;
66739;SDS011;53653;52.188;8.602;2023-08-21T13:23:58;8.90;;;1.87;;
66739;SDS011;53653;52.188;8.602;2023-08-21T13:26:23;7.13;;;1.60;;
66739;SDS011;53653;52.188;8.602;2023-08-21T13:28:50;10.30;;;1.90;;
66739;SDS011;53653;52.188;8.602;2023-08-21T13:31:16;7.43;;;1.50;;
66739;SDS011;53653;52.188;8.602;2023-08-21T13:33:49;6.73;;;1.80;;
66739;SDS011;53653;52.188;8.602;2023-08-21T13:36:16;11.10;;;1.67;;
66739;SDS011;53653;52.188;8.602;2023-08-21T13:38:44;6.95;;;1.70;;
66739;SDS011;53653;52.188;8.602;2023-08-21T13:41:10;5.50;;;1.58;;
66739;SDS011;53653;52.188;8.602;2023-08-21T13:43:36;7.20;;;1.55;;
66739;SDS011;53653;52.188;8.602;2023-08-21T13:46:02;6.90;;;1.60;;
66739;SDS011;53653;52.188;8.602;2023-08-21T13:48:30;4.95;;;1.40;;
66739;SDS011;53653;52.188;8.602;2023-08-21T13:50:56;6.07;;;1.42;;
66739;SDS011;53653;52.188;8.602;2023-08-21T13:53:23;6.60;;;1.60;;
66739;SDS011;53653;52.188;8.602;2023-08-21T13:55:50;6.50;;;1.60;;
66739;SDS011;53653;52.188;8.602;2023-08-21T13:58:17;7.90;;;1.70;;
66739;SDS011;53653;52.188;8.602;2023-08-21T14:00:47;6.00;;;1.50;;
66739;SDS011;53653;52.188;8.602;2023-08-21T14:03:13;6.80;;;1.70;;
66739;SDS011;53653;52.188;8.602;2023-08-21T14:05:39;9.10;;;1.88;;
66739;SDS011;53653;52.188;8.602;2023-08-21T14:08:05;5.00;;;1.23;;
66739;SDS011;53653;52.188;8.602;2023-08-21T14:10:31;6.68;;;1.85;;
66739;SDS011;53653;52.188;8.602;2023-08-21T14:12:57;9.17;;;1.50;;
66739;SDS011;53653;52.188;8.602;2023-08-21T14:15:23;6.80;;;1.40;;
66739;SDS011;53653;52.188;8.602;2023-08-21T14:17:50;5.63;;;1.38;;
66739;SDS011;53653;52.188;8.602;2023-08-21T14:20:17;8.27;;;1.63;;
66739;SDS011;53653;52.188;8.602;2023-08-21T14:22:43;4.68;;;1.38;;
66739;SDS011;53653;52.188;8.602;2023-08-21T14:25:11;8.50;;;1.60;;
66739;SDS011;53653;52.188;8.602;2023-08-21T14:27:36;6.93;;;1.40;;
66739;SDS011;53653;52.188;8.602;2023-08-21T14:30:03;5.57;;;1.40;;
66739;SDS011;53653;52.188;8.602;2023-08-21T14:32:30;9.10;;;1.80;;
66739;SDS011;53653;52.188;8.602;2023-08-21T14:34:56;8.73;;;1.80;;
66739;SDS011;53653;52.188;8.602;2023-08-21T14:37:22;6.30;;;1.43;;
66739;SDS011;53653;52.188;8.602;2023-08-21T14:39:50;7.60;;;1.50;;
66739;SDS011;53653;52.188;8.602;2023-08-21T14:42:17;7.47;;;1.98;;
66739;SDS011;53653;52.188;8.602;2023-08-21T14:44:43;7.40;;;1.60;;
66739;SDS011;53653;52.188;8.602;2023-08-21T14:47:09;6.65;;;1.50;;
66739;SDS011;53653;52.188;8.602;2023-08-21T14:49:36;5.93;;;1.40;;